createdAt,value
2018-06-14T00:01:39.112Z,84.70
2018-06-14T00:04:09.749Z,84.90
2018-06-14T00:06:39.065Z,85.10
2018-06-14T00:09:09.664Z,85.10
2018-06-14T00:11:38.878Z,85.10
2018-06-14T00:14:08.376Z,84.40
2018-06-14T00:16:38.239Z,84.40
2018-06-14T00:19:07.554Z,84.40
2018-06-14T00:21:36.797Z,83.90
2018-06-14T00:24:06.029Z,84.10
2018-06-14T00:26:35.310Z,83.60
2018-06-14T00:29:04.519Z,84.30
2018-06-14T00:31:33.634Z,84.30
2018-06-14T00:34:03.635Z,84.10
2018-06-14T00:36:32.778Z,84.80
2018-06-14T00:39:02.235Z,84.50
2018-06-14T00:41:31.409Z,85.10
2018-06-14T00:44:00.897Z,84.60
2018-06-14T00:46:30.548Z,84.50
2018-06-14T00:48:59.807Z,83.90
2018-06-14T00:51:29.552Z,84.00
2018-06-14T00:53:59.143Z,83.90
2018-06-14T00:56:28.766Z,84.10
2018-06-14T00:58:58.117Z,84.00
2018-06-14T01:01:28.338Z,83.90
2018-06-14T01:03:57.647Z,84.50
2018-06-14T01:06:27.940Z,84.30
2018-06-14T01:08:57.619Z,84.20
2018-06-14T01:11:28.115Z,84.60
2018-06-14T01:13:57.802Z,83.90
2018-06-14T01:16:27.548Z,84.40
2018-06-14T01:18:56.849Z,83.70
2018-06-14T01:21:26.097Z,83.30
2018-06-14T01:23:55.489Z,83.60
2018-06-14T01:26:24.933Z,83.30
2018-06-14T01:28:54.283Z,83.70
2018-06-14T01:31:23.624Z,83.90
2018-06-14T01:33:53.465Z,83.50
2018-06-14T01:36:22.932Z,83.70
2018-06-14T01:38:52.177Z,83.50
2018-06-14T01:41:21.977Z,83.40
2018-06-14T01:43:52.254Z,82.80
2018-06-14T01:46:22.456Z,83.50
2018-06-14T01:48:51.906Z,83.60
2018-06-14T01:51:21.066Z,83.80
2018-06-14T01:53:50.244Z,84.20
2018-06-14T01:56:19.573Z,84.10
2018-06-14T01:58:48.899Z,84.00
2018-06-14T02:01:18.344Z,84.10
2018-06-14T02:03:47.844Z,84.10
2018-06-14T02:06:18.117Z,83.90
2018-06-14T02:08:47.432Z,83.80
2018-06-14T02:11:16.992Z,83.40
2018-06-14T02:13:46.233Z,83.30
2018-06-14T02:16:15.653Z,83.70
2018-06-14T02:18:44.914Z,83.60
2018-06-14T02:21:14.636Z,83.80
2018-06-14T02:23:46.171Z,83.40
2018-06-14T02:26:15.769Z,83.70
2018-06-14T02:28:45.273Z,83.30
2018-06-14T02:31:14.970Z,82.80
2018-06-14T02:33:45.256Z,82.50
2018-06-14T02:36:15.227Z,82.80
2018-06-14T02:38:44.627Z,82.70
2018-06-14T02:41:14.390Z,83.00
2018-06-14T02:43:45.000Z,82.90
2018-06-14T02:46:14.658Z,83.30
2018-06-14T02:48:44.176Z,83.90
2018-06-14T02:51:13.481Z,83.90
2018-06-14T02:53:43.047Z,83.90
2018-06-14T02:56:12.581Z,83.40
2018-06-14T02:58:42.075Z,83.40
2018-06-14T03:01:11.486Z,82.30
2018-06-14T03:03:41.034Z,82.10
2018-06-14T03:06:10.373Z,82.60
2018-06-14T03:08:39.979Z,82.60
2018-06-14T03:11:09.421Z,82.30
2018-06-14T03:13:39.025Z,82.50
2018-06-14T03:16:08.503Z,81.80
2018-06-14T03:18:38.862Z,81.70
2018-06-14T03:21:08.523Z,81.60
2018-06-14T03:23:38.758Z,82.10
2018-06-14T03:26:08.809Z,81.50
2018-06-14T03:28:38.154Z,81.30
2018-06-14T03:31:09.293Z,80.80
2018-06-14T03:33:38.556Z,82.00
2018-06-14T03:36:07.983Z,82.10
2018-06-14T03:38:37.577Z,82.30
2018-06-14T03:41:07.226Z,82.50
2018-06-14T03:43:37.412Z,82.30
2018-06-14T03:46:07.342Z,82.60
2018-06-14T03:48:36.684Z,82.60
2018-06-14T03:53:36.004Z,82.10
2018-06-14T03:56:05.871Z,82.30
2018-06-14T03:58:35.320Z,82.20
2018-06-14T04:01:04.777Z,82.30
2018-06-14T04:03:35.241Z,82.50
2018-06-14T04:06:04.557Z,82.10
2018-06-14T04:08:34.207Z,82.80
2018-06-14T04:11:03.868Z,81.80
2018-06-14T04:13:34.302Z,82.00
2018-06-14T04:16:04.613Z,81.90
2018-06-14T04:18:33.933Z,81.90
2018-06-14T04:21:06.122Z,81.90
2018-06-14T04:23:35.616Z,81.50
2018-06-14T04:26:07.301Z,81.30
2018-06-14T04:28:37.030Z,81.20
2018-06-14T04:31:06.698Z,80.90
2018-06-14T04:33:35.822Z,79.90
2018-06-14T04:36:06.552Z,80.00
2018-06-14T04:38:36.193Z,78.50
2018-06-14T04:41:05.528Z,78.60
2018-06-14T04:43:34.850Z,78.30
2018-06-14T04:46:04.115Z,78.70
2018-06-14T04:48:33.387Z,78.90
2018-06-14T04:51:02.648Z,78.60
2018-06-14T04:53:31.998Z,78.10
2018-06-14T04:56:01.423Z,78.00
2018-06-14T04:58:31.405Z,78.30
2018-06-14T05:01:00.544Z,78.70
2018-06-14T05:03:30.080Z,79.50
2018-06-14T05:05:59.495Z,79.20
2018-06-14T05:08:29.157Z,79.50
2018-06-14T05:10:58.429Z,79.20
2018-06-14T05:13:28.414Z,77.90
2018-06-14T05:16:03.317Z,77.30
2018-06-14T05:18:32.959Z,77.80
2018-06-14T05:21:06.370Z,75.20
2018-06-14T05:23:36.110Z,75.00
2018-06-14T05:26:05.570Z,73.30
2018-06-14T05:28:35.790Z,73.70
2018-06-14T05:31:05.089Z,74.40
2018-06-14T05:33:34.306Z,73.50
2018-06-14T05:36:03.731Z,73.30
2018-06-14T05:38:32.930Z,73.60
2018-06-14T05:41:05.291Z,73.10
2018-06-14T05:43:34.722Z,72.80
2018-06-14T05:46:04.618Z,72.80
2018-06-14T05:48:34.051Z,73.40
2018-06-14T05:51:03.500Z,71.60
2018-06-14T05:53:32.775Z,70.40
2018-06-14T05:56:02.050Z,69.60
2018-06-14T05:58:31.704Z,69.10
2018-06-14T06:01:00.908Z,69.10
2018-06-14T06:03:30.806Z,71.00
2018-06-14T06:06:00.128Z,68.90
2018-06-14T06:08:30.197Z,66.60
2018-06-14T06:10:59.530Z,65.30
2018-06-14T06:13:28.783Z,65.00
2018-06-14T06:15:58.089Z,66.00
2018-06-14T06:18:27.610Z,65.60
2018-06-14T06:20:57.450Z,67.70
2018-06-14T06:23:26.875Z,66.70
2018-06-14T06:25:57.214Z,67.10
2018-06-14T06:28:29.295Z,64.80
2018-06-14T06:30:59.204Z,63.90
2018-06-14T06:33:29.485Z,63.80
2018-06-14T06:35:58.688Z,65.80
2018-06-14T06:38:27.909Z,64.00
2018-06-14T06:40:57.327Z,64.20
2018-06-14T06:43:28.085Z,60.60
2018-06-14T06:45:57.410Z,62.00
2018-06-14T06:48:27.896Z,61.00
2018-06-14T06:50:57.234Z,63.40
2018-06-14T06:53:26.435Z,62.30
2018-06-14T06:55:55.649Z,61.90
2018-06-14T06:58:25.733Z,62.60
2018-06-14T07:00:55.078Z,61.40
2018-06-14T07:03:24.490Z,62.30
2018-06-14T07:05:53.696Z,62.90
2018-06-14T07:08:23.165Z,60.00
2018-06-14T07:10:52.410Z,61.80
2018-06-14T07:13:22.322Z,61.30
2018-06-14T07:15:52.196Z,61.80
2018-06-14T07:18:21.513Z,61.00
2018-06-14T07:20:50.706Z,60.30
2018-06-14T07:23:20.108Z,61.40
2018-06-14T07:25:49.637Z,61.20
2018-06-14T07:28:18.856Z,61.80
2018-06-14T07:30:48.086Z,60.30
2018-06-14T07:33:17.178Z,59.10
2018-06-14T07:35:46.750Z,59.20
2018-06-14T07:38:16.734Z,56.90
2018-06-14T07:40:48.476Z,59.20
2018-06-14T07:43:18.625Z,57.00
2018-06-14T07:48:19.317Z,58.60
2018-06-14T07:50:49.821Z,57.50
2018-06-14T07:58:40.557Z,58.80
2018-06-14T08:01:09.564Z,58.20
2018-06-14T08:03:38.565Z,58.70
2018-06-14T08:06:07.494Z,58.90
2018-06-14T08:08:36.396Z,59.30
2018-06-14T08:11:05.450Z,58.50
2018-06-14T08:13:34.286Z,57.20
2018-06-14T08:16:03.278Z,56.70
2018-06-14T08:18:32.186Z,56.90
2018-06-14T08:21:04.065Z,55.80
2018-06-14T08:23:33.285Z,53.90
2018-06-14T08:26:02.168Z,53.30
2018-06-14T08:28:31.057Z,54.10
2018-06-14T08:30:59.986Z,53.60
2018-06-14T08:33:28.999Z,55.30
2018-06-14T08:35:57.879Z,53.10
2018-06-14T08:38:26.666Z,55.10
2018-06-14T08:40:55.592Z,55.20
2018-06-14T08:43:24.582Z,53.30
2018-06-14T08:45:53.527Z,52.90
2018-06-14T08:48:22.461Z,52.80
2018-06-14T08:50:51.458Z,52.50
2018-06-14T08:53:20.475Z,53.30
2018-06-14T08:55:49.333Z,53.90
2018-06-14T08:58:18.140Z,53.80
2018-06-14T09:00:47.053Z,52.40
2018-06-14T09:03:16.009Z,52.60
2018-06-14T09:05:44.982Z,53.20
2018-06-14T09:08:13.799Z,52.10
2018-06-14T09:10:42.741Z,53.50
2018-06-14T09:13:11.656Z,54.10
2018-06-14T09:15:40.613Z,53.30
2018-06-14T09:18:09.589Z,53.90
2018-06-14T09:20:38.514Z,53.80
2018-06-14T09:25:36.109Z,55.10
2018-06-14T09:28:06.122Z,54.40
2018-06-14T09:30:34.969Z,54.90
2018-06-14T09:33:06.011Z,55.30
2018-06-14T09:35:35.557Z,54.50
2018-06-14T09:38:06.797Z,53.60
2018-06-14T09:40:35.831Z,52.60
2018-06-14T09:43:05.051Z,50.80
2018-06-14T09:45:34.262Z,51.20
2018-06-14T09:48:03.116Z,51.60
2018-06-14T09:50:32.085Z,49.60
2018-06-14T09:53:01.143Z,51.00
2018-06-14T09:55:30.408Z,51.30
2018-06-14T09:57:59.468Z,51.30
2018-06-14T10:00:28.490Z,51.00
2018-06-14T10:02:57.436Z,53.70
2018-06-14T10:07:54.939Z,53.70
2018-06-14T10:10:24.071Z,51.90
2018-06-14T10:12:53.061Z,51.80
2018-06-14T10:15:21.993Z,51.60
2018-06-14T10:17:51.278Z,50.10
2018-06-14T10:20:20.209Z,51.70
2018-06-14T10:22:49.221Z,50.40
2018-06-14T10:25:18.173Z,50.60
2018-06-14T10:27:47.059Z,50.50
2018-06-14T10:32:44.618Z,51.00
2018-06-14T10:35:13.502Z,51.60
2018-06-14T10:37:42.608Z,52.40
2018-06-14T10:40:11.488Z,52.10
2018-06-14T10:45:09.004Z,52.00
2018-06-14T10:47:38.370Z,50.20
2018-06-14T10:50:07.425Z,50.50
2018-06-14T10:52:36.407Z,50.20
2018-06-14T10:55:05.951Z,50.60
2018-06-14T10:57:34.852Z,52.20
2018-06-14T11:00:06.164Z,52.30
2018-06-14T11:02:35.013Z,52.90
2018-06-14T11:05:04.277Z,53.10
2018-06-14T11:07:33.131Z,50.80
2018-06-14T11:10:02.115Z,50.40
2018-06-14T11:12:31.192Z,51.30
2018-06-14T11:17:28.873Z,51.60
2018-06-14T11:22:26.241Z,50.60
2018-06-14T11:27:28.157Z,51.50
2018-06-14T11:29:57.210Z,49.90
2018-06-14T11:34:54.657Z,49.70
2018-06-14T11:37:24.394Z,48.20
2018-06-14T11:39:53.370Z,48.40
2018-06-14T11:42:22.236Z,48.70
2018-06-14T11:44:51.453Z,50.20
2018-06-14T11:47:20.492Z,49.90
2018-06-14T11:49:49.680Z,48.70
2018-06-14T11:52:18.580Z,48.90
2018-06-14T11:54:47.587Z,49.50
2018-06-14T11:57:16.627Z,49.00
2018-06-14T11:59:49.350Z,48.20
2018-06-14T12:02:19.149Z,47.70
2018-06-14T12:04:48.171Z,48.40
2018-06-14T12:07:17.153Z,48.50
2018-06-14T12:09:46.107Z,47.90
2018-06-14T12:12:16.025Z,49.00
2018-06-14T12:14:45.022Z,46.20
2018-06-14T12:17:13.896Z,47.80
2018-06-14T12:19:42.902Z,48.90
2018-06-14T12:22:11.741Z,46.10
2018-06-14T12:24:40.613Z,47.10
2018-06-14T12:27:09.538Z,46.70
2018-06-14T12:29:38.474Z,47.60
2018-06-14T12:32:07.441Z,48.30
2018-06-14T12:34:36.429Z,47.50
2018-06-14T12:37:05.796Z,46.90
2018-06-14T12:39:35.133Z,46.30
2018-06-14T12:42:06.104Z,47.00
2018-06-14T12:44:35.397Z,49.00
2018-06-14T12:47:05.821Z,48.80
2018-06-14T12:49:34.812Z,46.30
2018-06-14T12:52:04.222Z,46.40
2018-06-14T12:54:33.170Z,45.60
2018-06-14T12:57:04.458Z,48.60
2018-06-14T12:59:33.411Z,48.10
2018-06-14T13:02:05.339Z,47.10
2018-06-14T13:04:34.434Z,47.90
2018-06-14T13:07:05.960Z,47.80
2018-06-14T13:09:34.999Z,48.10
2018-06-14T13:12:07.934Z,46.70
2018-06-14T13:14:37.093Z,46.60
2018-06-14T13:17:06.781Z,47.30
2018-06-14T13:19:35.868Z,46.90
2018-06-14T13:22:04.874Z,47.60
2018-06-14T13:24:42.096Z,48.00
2018-06-14T13:27:12.409Z,46.50
2018-06-14T13:29:41.647Z,46.70
2018-06-14T13:32:10.836Z,46.80
2018-06-14T13:34:40.288Z,47.20
2018-06-14T13:37:09.162Z,46.40
2018-06-14T13:39:38.155Z,45.10
2018-06-14T13:44:35.949Z,45.10
2018-06-14T13:47:07.430Z,47.10
2018-06-14T13:49:36.338Z,45.80
2018-06-14T13:52:05.912Z,46.30
2018-06-14T13:54:34.858Z,45.40
2018-06-14T13:57:06.640Z,46.50
2018-06-14T13:59:35.688Z,47.30
2018-06-14T14:02:06.692Z,47.20
2018-06-14T14:04:35.600Z,47.70
2018-06-14T14:07:04.733Z,47.70
2018-06-14T14:09:33.773Z,46.20
2018-06-14T14:12:03.456Z,45.60
2018-06-14T14:14:33.351Z,46.30
2018-06-14T14:17:06.061Z,46.30
2018-06-14T14:22:03.477Z,46.80
2018-06-14T14:24:32.444Z,45.90
2018-06-14T14:27:01.334Z,45.70
2018-06-14T14:29:30.566Z,44.70
2018-06-14T14:31:59.464Z,45.20
2018-06-14T14:34:28.782Z,45.90
2018-06-14T14:36:57.889Z,45.10
2018-06-14T14:39:26.846Z,44.80
2018-06-14T14:41:56.409Z,43.20
2018-06-14T14:44:25.271Z,44.20
2018-06-14T14:46:54.194Z,45.30
2018-06-14T14:49:23.033Z,42.50
2018-06-14T14:51:51.977Z,44.20
2018-06-14T14:54:20.929Z,43.90
2018-06-14T14:56:49.942Z,45.20
2018-06-14T15:01:47.935Z,44.20
2018-06-14T15:06:45.621Z,45.20
2018-06-14T15:11:43.202Z,46.10
2018-06-14T15:14:12.128Z,45.70
2018-06-14T15:19:09.368Z,47.20
2018-06-14T15:21:38.312Z,46.90
2018-06-14T15:24:07.662Z,47.90
2018-06-14T15:26:36.675Z,46.70
2018-06-14T15:29:05.583Z,47.70
2018-06-14T15:31:34.616Z,46.70
2018-06-14T15:36:35.651Z,48.20
2018-06-14T15:39:06.427Z,49.00
2018-06-14T15:44:03.912Z,48.90
2018-06-14T15:46:33.351Z,49.00
2018-06-14T15:49:05.869Z,48.90
2018-06-14T15:51:34.651Z,49.10
2018-06-14T15:54:05.082Z,50.50
2018-06-14T15:56:35.221Z,50.10
2018-06-14T16:04:37.726Z,50.20
2018-06-14T16:07:07.502Z,50.30
2018-06-14T16:09:36.605Z,49.60
2018-06-14T16:12:05.923Z,49.30
2018-06-14T16:17:44.213Z,49.10
2018-06-14T16:20:13.547Z,50.30
2018-06-14T16:22:44.038Z,50.90
2018-06-14T16:25:13.400Z,51.10
2018-06-14T16:27:42.348Z,50.20
2018-06-14T16:30:12.871Z,50.30
2018-06-14T16:32:43.607Z,50.00
2018-06-14T16:35:12.837Z,50.20
2018-06-14T16:37:41.839Z,51.00
2018-06-14T16:40:10.805Z,50.30
2018-06-14T16:42:39.937Z,50.40
2018-06-14T16:45:08.960Z,50.10
2018-06-14T16:47:38.050Z,50.90
2018-06-14T16:50:07.161Z,50.10
2018-06-14T16:52:36.446Z,50.90
2018-06-14T16:55:06.581Z,50.70
2018-06-14T16:57:35.935Z,50.90
2018-06-14T17:00:05.800Z,51.10
2018-06-14T17:02:34.856Z,50.70
2018-06-14T17:05:04.447Z,52.10
2018-06-14T17:07:33.686Z,52.30
2018-06-14T17:10:02.836Z,52.10
2018-06-14T17:12:31.875Z,52.80
2018-06-14T17:15:00.830Z,51.50
2018-06-14T17:17:29.759Z,52.20
2018-06-14T17:19:58.476Z,52.50
2018-06-14T17:22:27.426Z,52.60
2018-06-14T17:24:56.645Z,51.50
2018-06-14T17:27:25.816Z,50.70
2018-06-14T17:29:54.559Z,52.00
2018-06-14T17:32:23.430Z,52.70
2018-06-14T17:34:52.441Z,52.20
2018-06-14T17:37:21.445Z,51.90
2018-06-14T17:39:50.421Z,52.10
2018-06-14T17:42:19.301Z,52.90
2018-06-14T17:44:48.322Z,52.80
2018-06-14T17:47:17.397Z,52.20
2018-06-14T17:49:46.523Z,51.40
2018-06-14T17:52:16.538Z,51.40
2018-06-14T17:54:45.445Z,52.00
2018-06-14T17:57:14.559Z,52.30
2018-06-14T17:59:43.689Z,52.80
2018-06-14T18:02:12.674Z,52.90
2018-06-14T18:04:41.364Z,53.20
2018-06-14T18:07:10.232Z,54.00
2018-06-14T18:09:39.055Z,53.60
2018-06-14T18:12:07.876Z,53.40
2018-06-14T18:14:36.740Z,53.90
2018-06-14T18:17:05.467Z,53.80
2018-06-14T18:19:34.126Z,53.80
2018-06-14T18:22:02.856Z,53.80
2018-06-14T18:24:42.239Z,53.60
2018-06-14T18:27:12.298Z,53.70
2018-06-14T18:29:41.293Z,53.90
2018-06-14T18:32:10.297Z,54.40
2018-06-14T18:34:39.050Z,53.90
2018-06-14T18:37:09.047Z,53.80
2018-06-14T18:39:38.099Z,54.80
2018-06-14T18:42:06.938Z,54.30
2018-06-14T18:44:35.685Z,54.70
2018-06-14T18:47:04.601Z,54.00
2018-06-14T18:49:35.098Z,54.40
2018-06-14T18:52:03.912Z,54.80
2018-06-14T18:54:32.751Z,54.90
2018-06-14T18:57:03.619Z,55.30
2018-06-14T18:59:32.393Z,55.20
2018-06-14T19:02:01.424Z,56.10
2018-06-14T19:04:30.870Z,55.30
2018-06-14T19:06:59.951Z,55.30
2018-06-14T19:09:28.780Z,55.90
2018-06-14T19:11:57.569Z,57.30
2018-06-14T19:14:26.739Z,56.90
2018-06-14T19:16:55.751Z,57.00
2018-06-14T19:19:24.464Z,56.30
2018-06-14T19:21:53.497Z,56.80
2018-06-14T19:24:22.784Z,56.30
2018-06-14T19:26:53.150Z,57.70
2018-06-14T19:29:22.484Z,57.00
2018-06-14T19:31:51.620Z,55.80
2018-06-14T19:34:21.675Z,57.50
2018-06-14T19:36:51.082Z,57.10
2018-06-14T19:39:20.137Z,57.60
2018-06-14T19:41:49.670Z,56.50
2018-06-14T19:44:19.057Z,56.40
2018-06-14T19:46:48.611Z,58.10
2018-06-14T19:49:21.640Z,58.40
2018-06-14T19:51:51.828Z,59.10
2018-06-14T19:54:20.655Z,58.60
2018-06-14T19:56:49.593Z,59.30
2018-06-14T19:59:18.630Z,58.20
2018-06-14T20:01:47.485Z,58.90
2018-06-14T20:04:16.288Z,59.30
2018-06-14T20:06:45.421Z,58.10
2018-06-14T20:09:14.545Z,59.70
2018-06-14T20:11:43.262Z,59.60
2018-06-14T20:14:12.149Z,59.90
2018-06-14T20:16:40.824Z,59.10
2018-06-14T20:19:09.659Z,59.20
2018-06-14T20:21:38.342Z,60.70
2018-06-14T20:24:08.066Z,60.30
2018-06-14T20:26:37.158Z,59.90
2018-06-14T20:29:06.138Z,59.50
2018-06-14T20:31:35.069Z,59.10
2018-06-14T20:34:04.151Z,59.20
2018-06-14T20:36:33.150Z,58.80
2018-06-14T20:39:01.952Z,59.10
2018-06-14T20:41:31.866Z,58.90
2018-06-14T20:44:00.753Z,59.20
2018-06-14T20:46:29.694Z,59.80
2018-06-14T20:48:58.884Z,58.70
2018-06-14T20:51:27.771Z,58.30
2018-06-14T20:53:57.744Z,59.10
2018-06-14T20:56:26.937Z,59.50
2018-06-14T20:58:56.124Z,59.20
2018-06-14T21:01:24.832Z,60.90
2018-06-14T21:03:53.767Z,60.40
2018-06-14T21:06:22.570Z,60.70
2018-06-14T21:08:51.831Z,60.90
2018-06-14T21:11:20.546Z,59.90
2018-06-14T21:13:49.365Z,59.70
2018-06-14T21:16:18.467Z,59.20
2018-06-14T21:18:48.758Z,59.20
2018-06-14T21:21:17.995Z,59.50
2018-06-14T21:23:46.737Z,60.70
2018-06-14T21:26:15.781Z,59.10
2018-06-14T21:28:51.688Z,59.80
2018-06-14T21:31:20.705Z,60.00
2018-06-14T21:33:49.620Z,60.50
2018-06-14T21:36:18.423Z,59.80
2018-06-14T21:38:48.127Z,59.90
2018-06-14T21:41:17.004Z,60.00
2018-06-14T21:43:45.768Z,61.30
2018-06-14T21:46:15.707Z,60.20
2018-06-14T21:48:45.592Z,60.00
2018-06-14T21:51:15.605Z,60.50
2018-06-14T21:53:44.390Z,61.80
2018-06-14T21:56:13.205Z,62.30
2018-06-14T21:58:42.057Z,61.90
2018-06-14T22:01:12.412Z,61.30
2018-06-14T22:03:46.832Z,61.40
2018-06-14T22:06:23.341Z,61.30
2018-06-14T22:08:52.380Z,60.90
2018-06-14T22:11:21.191Z,61.60
2018-06-14T22:13:49.917Z,61.90
2018-06-14T22:16:18.940Z,61.60
2018-06-14T22:18:49.704Z,62.30
2018-06-14T22:21:20.522Z,62.90
2018-06-14T22:23:51.760Z,63.10
2018-06-14T22:26:23.315Z,64.30
2018-06-14T22:28:53.201Z,64.60
2018-06-14T22:31:23.942Z,63.70
2018-06-14T22:36:06.588Z,64.50
2018-06-14T22:38:37.299Z,65.40
2018-06-14T22:41:07.417Z,64.30
2018-06-14T22:43:38.067Z,64.70
2018-06-14T22:46:10.155Z,65.00
2018-06-14T22:48:41.645Z,64.10
2018-06-14T22:51:23.141Z,64.30
2018-06-14T22:53:57.204Z,65.20
2018-06-14T22:56:29.178Z,65.20
2018-06-14T22:59:02.678Z,65.80
2018-06-14T23:01:44.608Z,66.60
2018-06-14T23:04:19.359Z,66.60
2018-06-14T23:06:51.790Z,66.50
2018-06-14T23:10:37.474Z,66.50
2018-06-14T23:13:15.102Z,67.20
2018-06-14T23:15:55.907Z,67.90
2018-06-14T23:18:27.344Z,68.30
2018-06-14T23:20:59.736Z,68.50
2018-06-14T23:23:33.281Z,68.50
2018-06-14T23:26:06.004Z,68.20
2018-06-14T23:28:39.628Z,68.50
2018-06-14T23:31:11.299Z,68.80
2018-06-14T23:33:43.426Z,69.10
2018-06-14T23:36:18.960Z,68.90
2018-06-14T23:38:53.741Z,68.60
2018-06-14T23:41:26.200Z,68.70
2018-06-14T23:43:57.007Z,69.20
2018-06-14T23:46:30.025Z,69.00
2018-06-14T23:49:01.732Z,69.20
2018-06-14T23:51:34.692Z,69.70
2018-06-14T23:54:10.543Z,70.40
2018-06-14T23:56:43.772Z,70.70
2018-06-14T23:59:15.777Z,70.90
